.
WxDataArchive / Data Records for 2012-04-22
2012-04-21 April 2012 2012-04-23

Data Records for Sunday, 22 April 2012

Time	Temp	Chill	HIndex	Humid	Dewpt	 Wind 	HiWind	WindDir	Rain 	Barom 
-----	----	-----	------	-----	-----	------	------	-------	-----	----- 
00:00	44.5	44.5	44.5	62	32.3	1	3	112	0.00	29.983 
00:05	44.3	44.3	44.3	62	32.1	1	4	112	0.00	29.983 
00:10	44.2	44.2	44.2	61	31.6	1	6	112	0.00	29.983 
00:15	44.1	44.1	44.1	62	31.9	1	6	112	0.00	29.981 
00:20	43.9	43.9	43.9	62	31.7	0	2	158	0.00	29.981 
00:25	43.6	43.6	43.6	61	31.0	0	2	158	0.00	29.981 
00:30	43.5	43.5	43.5	62	31.4	1	4	22	0.00	29.983 
00:35	43.3	43.3	43.3	61	30.8	1	4	90	0.00	29.983 
00:40	43.2	43.2	43.2	60	30.3	0	1	90	0.00	29.983 
00:45	43.1	43.1	43.1	60	30.2	1	3	90	0.00	29.983 
00:50	42.9	42.9	42.9	60	30.0	1	2	90	0.00	29.983 
00:55	42.8	42.8	42.8	59	29.5	1	3	90	0.00	29.983 
01:00	42.6	42.6	42.6	59	29.3	1	3	90	0.00	29.985 
01:05	42.5	42.5	42.5	59	29.2	0	3	90	0.00	29.985 
01:10	42.3	42.3	42.3	60	29.4	0	2	90	0.00	29.985 
01:15	42.1	42.1	42.1	60	29.2	0	1	90	0.00	29.984 
01:20	41.9	41.9	41.9	61	29.4	0	3	90	0.00	29.984 
01:25	41.8	41.8	41.8	61	29.4	0	3	45	0.00	29.984 
01:30	41.6	41.6	41.6	62	29.6	0	2	45	0.00	29.981 
01:35	41.3	41.3	41.3	63	29.7	0	0	---	0.00	29.981 
01:40	41.2	41.2	41.2	62	29.2	0	2	45	0.00	29.981 
01:45	41.1	41.1	41.1	63	29.5	0	2	45	0.00	29.981 
01:50	40.8	40.8	40.8	63	29.2	0	2	45	0.00	29.981 
01:55	40.6	40.6	40.6	64	29.4	0	2	45	0.00	29.981 
02:00	40.5	40.5	40.5	64	29.3	0	2	68	0.00	29.977 
02:05	40.5	40.5	40.5	64	29.3	0	0	---	0.00	29.977 
02:10	40.3	40.3	40.3	65	29.5	0	2	68	0.00	29.977 
02:15	40.3	40.3	40.3	65	29.5	0	1	68	0.00	29.973 
02:20	40.3	40.3	40.3	65	29.5	0	2	68	0.00	29.973 
02:25	40.5	40.5	40.5	65	29.7	1	4	68	0.00	29.973 
02:30	40.6	40.6	40.6	65	29.8	0	2	68	0.00	29.971 
02:35	40.8	40.8	40.8	65	30.0	0	2	68	0.00	29.971 
02:40	40.9	40.9	40.9	65	30.1	0	3	68	0.00	29.971 
02:45	40.9	40.9	40.9	66	30.4	0	1	68	0.00	29.971 
02:50	40.9	40.9	40.9	67	30.8	0	1	68	0.00	29.971 
02:55	40.9	40.9	40.9	67	30.8	0	0	---	0.00	29.971 
03:00	40.8	40.8	40.8	68	31.1	0	0	---	0.00	29.972 
03:05	40.8	40.8	40.8	69	31.4	0	1	68	0.00	29.972 
03:10	40.8	40.8	40.8	69	31.4	0	2	68	0.00	29.972 
03:15	40.9	40.9	40.9	69	31.5	0	1	68	0.00	29.969 
03:20	40.9	40.9	40.9	70	31.9	0	1	68	0.00	29.969 
03:25	40.9	40.9	40.9	70	31.9	0	0	---	0.00	29.969 
03:30	41.1	41.1	41.1	71	32.4	0	0	---	0.00	29.965 
03:35	41.1	41.1	41.1	71	32.4	0	1	68	0.00	29.965 
03:40	41.1	41.1	41.1	71	32.4	0	2	68	0.00	29.965 
03:45	41.1	41.1	41.1	72	32.8	0	1	68	0.00	29.967 
03:50	41.2	41.2	41.2	72	32.9	0	2	68	0.00	29.967 
03:55	41.2	41.2	41.2	71	32.5	0	2	68	0.00	29.967 
04:00	41.1	41.1	41.1	70	32.1	1	5	112	0.00	29.967 
04:05	40.9	40.9	40.9	67	30.8	2	6	90	0.00	29.967 
04:10	40.6	40.6	40.6	67	30.5	1	4	112	0.00	29.967 
04:15	40.5	40.5	40.5	68	30.8	2	6	112	0.00	29.968 
04:20	40.2	40.2	40.2	68	30.5	1	5	90	0.00	29.968 
04:25	40.1	40.1	40.1	69	30.8	0	3	90	0.00	29.968 
04:30	39.6	39.6	39.6	68	29.9	1	5	90	0.00	29.968 
04:35	39.3	39.3	39.3	67	29.3	0	3	90	0.00	29.968 
04:40	39.2	39.2	39.2	68	29.5	1	3	90	0.00	29.968 
04:45	38.9	38.9	38.9	68	29.3	1	5	90	0.00	29.966 
04:50	38.8	38.8	38.8	69	29.5	1	3	112	0.00	29.966 
04:55	38.6	38.6	38.6	69	29.3	0	2	112	0.00	29.966 
05:00	38.5	38.5	38.5	69	29.2	0	2	112	0.00	29.965 
05:05	38.5	38.5	38.5	69	29.2	1	3	112	0.00	29.965 
05:10	38.3	38.3	38.3	69	29.0	0	4	112	0.00	29.965 
05:15	38.2	38.2	38.2	70	29.3	0	1	112	0.00	29.962 
05:20	38.2	38.2	38.2	70	29.3	0	1	112	0.00	29.962 
05:25	38.0	38.0	38.0	70	29.1	0	1	112	0.00	29.962 
05:30	37.9	37.9	37.9	71	29.4	0	1	112	0.00	29.958 
05:35	37.8	37.8	37.8	71	29.3	0	1	112	0.00	29.958 
05:40	37.6	37.6	37.6	71	29.1	0	3	112	0.00	29.958 
05:45	37.5	37.5	37.5	72	29.3	0	1	112	0.00	29.956 
05:50	37.3	37.3	37.3	72	29.1	0	1	112	0.00	29.956 
05:55	37.2	37.2	37.2	73	29.4	0	0	---	0.00	29.956 
06:00	37.2	37.2	37.2	73	29.4	0	0	---	0.00	29.955 
06:05	37.0	37.0	37.0	74	29.5	0	0	---	0.00	29.955 
06:10	36.9	36.9	36.9	74	29.4	0	1	112	0.00	29.955 
06:15	36.9	36.9	36.9	74	29.4	0	0	---	0.00	29.958 
06:20	36.8	36.8	36.8	75	29.6	0	1	112	0.00	29.958 
06:25	36.6	36.6	36.6	75	29.4	0	0	---	0.00	29.958 
06:30	36.5	36.5	36.5	75	29.3	0	0	---	0.00	29.957 
06:35	36.5	36.5	36.5	75	29.3	0	1	112	0.00	29.957 
06:40	36.3	36.3	36.3	76	29.5	0	0	---	0.00	29.957 
06:45	36.2	36.2	36.2	76	29.4	0	1	112	0.00	29.965 
06:50	36.2	36.2	36.2	76	29.4	0	0	---	0.00	29.965 
06:55	36.0	36.0	36.0	76	29.2	0	0	---	0.00	29.965 
07:00	36.0	36.0	36.0	77	29.5	0	1	112	0.00	29.968 
07:05	35.9	35.9	35.9	77	29.4	0	0	---	0.00	29.968 
07:10	35.8	35.8	35.8	77	29.3	0	0	---	0.00	29.968 
07:15	35.8	35.8	35.8	77	29.3	0	2	112	0.00	29.970 
07:20	35.8	35.8	35.8	77	29.3	0	0	---	0.00	29.970 
07:25	35.8	35.8	35.8	77	29.3	0	1	112	0.00	29.970 
07:30	35.9	35.9	35.9	77	29.4	0	1	112	0.00	29.973 
07:35	36.0	36.0	36.0	77	29.5	0	1	112	0.00	29.973 
07:40	36.0	36.0	36.0	77	29.5	0	1	112	0.00	29.973 
07:45	36.3	36.3	36.3	77	29.8	0	0	---	0.00	29.975 
07:50	36.6	36.6	36.6	77	30.1	0	1	112	0.00	29.975 
07:55	36.8	36.8	36.8	76	30.0	0	1	112	0.00	29.975 
08:00	36.9	36.9	36.9	75	29.7	0	0	---	0.00	29.984 
08:05	36.9	36.9	36.9	75	29.7	0	1	112	0.00	29.984 
08:10	36.9	36.9	36.9	75	29.7	0	3	112	0.00	29.984 
08:15	37.0	37.0	37.0	75	29.8	0	1	112	0.00	29.989 
08:20	37.3	37.3	37.3	75	30.1	0	1	112	0.00	29.989 
08:25	37.6	37.6	37.6	74	30.1	0	3	112	0.00	29.989 
08:30	37.8	37.8	37.8	74	30.3	1	4	45	0.00	29.990 
08:35	37.9	37.9	37.9	74	30.4	0	2	135	0.00	29.990 
08:40	38.2	38.2	38.2	74	30.7	0	2	135	0.00	29.990 
08:45	38.3	38.3	38.3	73	30.4	0	3	135	0.00	29.991 
08:50	38.6	38.6	38.6	73	30.7	0	2	135	0.00	29.991 
08:55	38.9	38.9	38.9	73	31.0	0	2	135	0.00	29.991 
09:00	39.3	39.3	39.3	72	31.0	0	3	135	0.00	29.987 
09:05	39.8	39.8	39.8	72	31.5	0	3	135	0.00	29.987 
09:10	40.1	40.1	40.1	71	31.5	1	4	135	0.00	29.987 
09:15	40.2	40.2	40.2	69	30.9	0	3	135	0.00	29.986 
09:20	40.5	40.5	40.5	70	31.5	0	2	68	0.00	29.986 
09:25	40.6	40.6	40.6	69	31.2	1	4	68	0.00	29.986 
09:30	41.1	41.1	41.1	68	31.4	1	4	90	0.00	29.986 
09:35	41.5	41.5	41.5	69	32.1	0	2	90	0.00	29.986 
09:40	41.9	41.9	41.9	67	31.8	0	1	90	0.00	29.986 
09:45	42.5	42.5	42.5	67	32.3	1	3	90	0.00	29.983 
09:50	42.9	42.9	42.9	66	32.3	1	4	112	0.00	29.983 
09:55	43.1	43.1	43.1	65	32.1	1	5	22	0.00	29.983 
10:00	42.9	42.9	42.9	65	32.0	1	4	112	0.00	29.976 
10:05	43.2	43.2	43.2	66	32.6	1	4	112	0.00	29.976 
10:10	43.3	43.3	43.3	65	32.3	1	6	68	0.00	29.976 
10:15	43.5	43.5	43.5	66	32.9	1	3	112	0.00	29.971 
10:20	43.8	43.8	43.8	65	32.8	1	6	45	0.00	29.971 
10:25	44.3	44.3	44.3	64	32.9	1	6	112	0.00	29.971 
10:30	45.2	45.2	45.2	64	33.8	1	6	68	0.00	29.967 
10:35	45.8	45.8	45.8	60	32.7	2	6	90	0.00	29.967 
10:40	45.2	45.2	45.2	61	32.6	1	4	90	0.00	29.967 
10:45	45.5	45.5	45.5	62	33.2	1	6	135	0.00	29.967 
10:50	46.0	46.0	46.0	59	32.5	2	6	90	0.00	29.967 
10:55	46.1	46.1	46.1	58	32.2	2	4	112	0.00	29.967 
11:00	45.8	45.8	45.8	57	31.4	2	7	135	0.00	29.967 
11:05	45.8	45.8	45.8	56	31.0	2	9	90	0.00	29.967 
11:10	46.0	46.0	46.0	57	31.6	1	7	90	0.00	29.967 
11:15	45.8	45.8	45.8	57	31.4	2	7	112	0.00	29.969 
11:20	45.7	45.7	45.7	59	32.2	2	7	90	0.00	29.969 
11:25	45.5	45.5	45.5	58	31.6	1	3	270	0.00	29.969 
11:30	45.8	45.8	45.8	56	31.0	1	4	90	0.00	29.967 
11:35	45.8	45.8	45.8	56	31.0	1	5	112	0.00	29.967 
11:40	45.7	45.7	45.7	56	30.9	1	4	90	0.00	29.967 
11:45	45.5	45.5	45.5	57	31.2	1	4	68	0.00	29.967 
11:50	45.7	45.7	45.7	57	31.3	0	3	45	0.00	29.967 
11:55	46.0	46.0	46.0	56	31.2	0	3	112	0.00	29.967 
12:00	46.1	46.1	46.1	57	31.7	2	5	112	0.00	29.966 
12:05	46.8	46.8	46.8	54	31.0	2	7	112	0.00	29.966 
12:10	46.7	46.7	46.7	53	30.5	3	7	90	0.00	29.966 
12:15	46.2	46.2	46.2	52	29.6	1	6	90	0.00	29.964 
12:20	45.8	45.8	45.8	53	29.7	1	4	90	0.00	29.964 
12:25	45.7	45.7	45.7	53	29.6	1	5	22	0.00	29.964 
12:30	45.7	45.7	45.7	52	29.1	1	3	68	0.00	29.963 
12:35	46.4	46.4	46.4	54	30.7	2	5	90	0.00	29.963 
12:40	48.0	48.0	48.0	55	32.6	2	6	112	0.00	29.963 
12:45	48.9	48.9	48.9	48	30.1	2	8	338	0.00	29.954 
12:50	48.8	48.8	48.8	46	28.9	3	12	112	0.00	29.954 
12:55	48.5	48.5	48.5	48	29.7	2	6	90	0.00	29.954 
13:00	48.2	48.2	48.2	48	29.4	1	4	315	0.00	29.961 
13:05	47.4	47.4	47.4	48	28.7	1	4	292	0.00	29.961 
13:10	46.7	46.7	46.7	47	27.6	1	4	292	0.00	29.961 
13:15	46.5	46.5	46.5	49	28.4	1	6	68	0.00	29.961 
13:20	46.7	46.7	46.7	49	28.6	1	5	112	0.00	29.961 
13:25	46.8	46.8	46.8	49	28.7	1	4	270	0.00	29.961 
13:30	47.4	47.4	47.4	49	29.2	2	7	90	0.00	29.961 
13:35	47.7	47.7	47.7	47	28.5	2	9	90	0.00	29.961 
13:40	47.7	47.7	47.7	50	30.0	2	9	90	0.00	29.961 
13:45	47.6	47.6	47.6	49	29.4	0	3	90	0.00	29.962 
13:50	47.4	47.4	47.4	46	27.7	2	5	112	0.00	29.962 
13:55	47.3	47.3	47.3	48	28.6	1	3	90	0.00	29.962 
14:00	47.1	47.1	47.1	49	28.9	2	9	90	0.00	29.965 
14:05	47.3	47.3	47.3	50	29.6	1	9	135	0.00	29.965 
14:10	47.9	47.9	47.9	50	30.2	1	6	45	0.00	29.965 
14:15	48.0	48.0	48.0	49	29.8	2	5	112	0.00	29.967 
14:20	47.4	47.4	47.4	48	28.7	2	7	90	0.00	29.967 
14:25	47.3	47.3	47.3	50	29.6	2	6	112	0.00	29.967 
14:30	47.1	47.1	47.1	51	29.9	1	3	248	0.00	29.968 
14:35	47.0	47.0	47.0	50	29.3	2	5	112	0.00	29.968 
14:40	46.7	46.7	46.7	50	29.1	1	5	112	0.00	29.968 
14:45	46.5	46.5	46.5	50	28.9	1	5	68	0.00	29.969 
14:50	46.4	46.4	46.4	50	28.8	1	4	180	0.00	29.969 
14:55	46.4	46.4	46.4	52	29.7	0	4	90	0.00	29.969 
15:00	46.5	46.5	46.5	52	29.8	1	3	90	0.00	29.967 
15:05	47.0	47.0	47.0	50	29.3	1	3	90	0.00	29.967 
15:10	47.4	47.4	47.4	50	29.7	0	4	135	0.00	29.967 
15:15	48.0	48.0	48.0	50	30.3	1	6	90	0.00	29.958 
15:20	48.3	48.3	48.3	49	30.0	1	3	90	0.00	29.958 
15:25	48.5	48.5	48.5	49	30.2	1	4	90	0.00	29.958 
15:30	48.8	48.8	48.8	46	28.9	2	5	112	0.00	29.953 
15:35	49.2	49.2	49.2	48	30.4	1	3	135	0.00	29.953 
15:40	49.5	49.5	49.5	47	30.1	1	4	112	0.00	29.953 
15:45	49.2	49.2	49.2	47	29.8	1	2	90	0.00	29.952 
15:50	48.9	48.9	48.9	48	30.1	1	5	158	0.00	29.952 
15:55	48.8	48.8	48.8	46	28.9	1	6	112	0.00	29.952 
16:00	48.9	48.9	48.9	46	29.0	1	2	338	0.00	29.945 
16:05	49.8	49.8	49.8	46	29.9	1	9	90	0.00	29.945 
16:10	50.1	50.1	50.1	42	27.9	1	6	338	0.00	29.945 
16:15	50.1	50.1	50.1	42	27.9	1	5	158	0.00	29.941 
16:20	50.2	50.2	50.2	43	28.6	1	5	22	0.00	29.941 
16:25	50.1	50.1	50.1	41	27.3	1	6	248	0.00	29.941 
16:30	50.2	50.2	50.2	39	26.2	1	5	22	0.00	29.939 
16:35	50.4	50.4	50.4	40	27.0	1	7	135	0.00	29.939 
16:40	51.0	51.0	51.0	40	27.5	1	7	22	0.00	29.939 
16:45	51.1	51.1	51.1	37	25.7	1	6	90	0.00	29.935 
16:50	51.3	51.3	51.3	36	25.3	1	5	292	0.00	29.935 
16:55	52.0	52.0	52.0	36	25.9	1	4	90	0.00	29.935 
17:00	52.3	52.3	52.3	35	25.5	1	6	22	0.00	29.935 
17:05	52.0	52.0	52.0	33	23.8	2	6	22	0.00	29.935 
17:10	52.0	52.0	52.0	32	23.1	2	5	0	0.00	29.935 
17:15	52.2	52.2	52.2	34	24.7	1	5	112	0.00	29.926 
17:20	52.8	52.8	52.8	35	25.9	1	4	338	0.00	29.926 
17:25	53.2	53.2	53.2	32	24.1	2	7	338	0.00	29.926 
17:30	52.9	52.9	52.9	32	23.9	1	7	112	0.00	29.932 
17:35	52.5	52.5	52.5	31	22.8	1	3	90	0.00	29.932 
17:40	52.0	52.0	52.0	31	22.3	1	3	45	0.00	29.932 
17:45	51.6	51.6	51.6	32	22.7	1	3	180	0.00	29.932 
17:50	51.1	51.1	51.1	33	23.0	1	2	158	0.00	29.932 
17:55	50.8	50.8	50.8	33	22.7	1	4	292	0.00	29.932 
18:00	50.8	50.8	50.8	35	24.1	1	5	338	0.00	29.937 
18:05	51.0	51.0	51.0	34	23.6	1	5	338	0.00	29.937 
18:10	50.8	50.8	50.8	33	22.7	1	7	0	0.00	29.937 
18:15	50.8	50.8	50.8	32	22.0	1	5	90	0.00	29.938 
18:20	50.7	50.7	50.7	33	22.7	1	4	315	0.00	29.938 
18:25	50.5	50.5	50.5	34	23.2	1	4	292	0.00	29.938 
18:30	50.4	50.4	50.4	35	23.8	1	4	90	0.00	29.940 
18:35	50.2	50.2	50.2	35	23.6	1	3	90	0.00	29.940 
18:40	50.2	50.2	50.2	36	24.3	1	6	292	0.00	29.940 
18:45	50.1	50.1	50.1	37	24.9	1	5	315	0.00	29.941 
18:50	49.9	49.9	49.9	36	24.0	1	5	0	0.00	29.941 
18:55	49.8	49.8	49.8	38	25.2	1	4	112	0.00	29.941 
19:00	49.6	49.6	49.6	37	24.4	1	4	0	0.00	29.941 
19:05	49.4	49.4	49.4	37	24.2	2	5	315	0.00	29.941 
19:10	49.2	49.2	49.2	39	25.3	1	6	270	0.00	29.941 
19:15	49.2	49.2	49.2	38	24.7	2	5	270	0.00	29.941 
19:20	49.1	49.1	49.1	38	24.6	2	6	292	0.00	29.941 
19:25	48.9	48.9	48.9	38	24.4	2	5	338	0.00	29.941 
19:30	48.8	48.8	48.8	38	24.3	1	9	338	0.00	29.943 
19:35	48.8	48.8	48.8	38	24.3	2	5	0	0.00	29.943 
19:40	48.6	48.6	48.6	39	24.8	1	4	315	0.00	29.943 
19:45	48.5	48.5	48.5	39	24.7	1	5	292	0.00	29.946 
19:50	48.3	48.3	48.3	39	24.5	2	7	292	0.00	29.946 
19:55	48.2	48.2	48.2	39	24.4	2	6	0	0.00	29.946 
20:00	48.0	48.0	48.0	39	24.2	2	6	0	0.00	29.954 
20:05	47.7	47.7	47.7	39	24.0	1	3	292	0.00	29.954 
20:10	47.4	47.4	47.4	38	23.1	2	9	338	0.00	29.954 
20:15	47.3	47.3	47.3	38	23.0	2	5	0	0.00	29.957 
20:20	47.0	47.0	47.0	39	23.3	1	9	338	0.00	29.957 
20:25	46.8	46.8	46.8	39	23.2	1	8	315	0.00	29.957 
20:30	46.5	46.5	46.5	40	23.5	1	6	292	0.00	29.960 
20:35	46.2	46.2	46.2	40	23.2	1	3	292	0.00	29.960 
20:40	46.2	46.2	46.2	40	23.2	1	6	292	0.00	29.960 
20:45	46.1	46.1	46.1	40	23.1	1	4	270	0.00	29.965 
20:50	46.1	46.1	46.1	41	23.7	1	4	338	0.00	29.965 
20:55	45.8	45.8	45.8	41	23.5	1	10	315	0.00	29.965 
21:00	45.8	45.8	45.8	41	23.5	2	7	338	0.00	29.969 
21:05	45.8	45.8	45.8	40	22.9	1	3	0	0.00	29.969 
21:10	45.7	45.7	45.7	41	23.4	1	2	0	0.00	29.969 
21:15	45.5	45.5	45.5	41	23.2	1	4	270	0.00	29.968 
21:20	45.2	45.2	45.2	41	22.9	0	2	338	0.00	29.968 
21:25	45.1	45.1	45.1	42	23.4	0	1	338	0.00	29.968 
21:30	45.1	45.1	45.1	42	23.4	0	2	338	0.00	29.970 
21:35	44.8	44.8	44.8	42	23.1	0	3	338	0.00	29.970 
21:40	44.6	44.6	44.6	42	22.9	0	3	338	0.00	29.970 
21:45	44.5	44.5	44.5	43	23.4	0	2	338	0.00	29.972 
21:50	44.2	44.2	44.2	43	23.1	0	2	338	0.00	29.972 
21:55	44.1	44.1	44.1	43	23.0	0	2	338	0.00	29.972 
22:00	43.9	43.9	43.9	43	22.9	0	2	338	0.00	29.974 
22:05	43.8	43.8	43.8	44	23.3	0	1	338	0.00	29.974 
22:10	43.5	43.5	43.5	44	23.1	0	1	338	0.00	29.974 
22:15	43.3	43.3	43.3	43	22.3	0	3	270	0.00	29.973 
22:20	43.2	43.2	43.2	44	22.8	0	1	270	0.00	29.973 
22:25	43.1	43.1	43.1	44	22.7	0	2	270	0.00	29.973 
22:30	42.9	42.9	42.9	44	22.5	0	1	270	0.00	29.972 
22:35	42.8	42.8	42.8	44	22.4	0	2	270	0.00	29.972 
22:40	42.6	42.6	42.6	44	22.2	0	1	270	0.00	29.972 
22:45	42.5	42.5	42.5	43	21.6	0	2	270	0.00	29.974 
22:50	42.3	42.3	42.3	43	21.4	1	3	338	0.00	29.974 
22:55	42.3	42.3	42.3	43	21.4	0	2	338	0.00	29.974 
23:00	42.3	42.3	42.3	44	22.0	0	2	338	0.00	29.973 
23:05	42.2	42.2	42.2	46	22.9	0	1	315	0.00	29.973 
23:10	42.1	42.1	42.1	46	22.8	0	1	315	0.00	29.973 
23:15	41.8	41.8	41.8	46	22.6	1	3	338	0.00	29.971 
23:20	41.8	41.8	41.8	46	22.6	1	3	338	0.00	29.971 
23:25	41.5	41.5	41.5	47	22.8	1	4	338	0.00	29.971 
23:30	41.3	41.3	41.3	47	22.6	0	1	292	0.00	29.972 
23:35	41.2	41.2	41.2	48	23.0	0	2	292	0.00	29.972 
23:40	41.1	41.1	41.1	49	23.4	0	2	292	0.00	29.972 
23:45	40.8	40.8	40.8	50	23.6	0	2	292	0.00	29.971 
23:50	40.6	40.6	40.6	50	23.4	0	2	315	0.00	29.971 
23:55	40.5	40.5	40.5	50	23.3	0	2	315	0.00	29.971 

CoCoRaHS
IN-AL-39
A2 Web Hosting
Creative Commons License
GoDaddy
search engine by freefind advanced

loaded 2018-11-15 06:09:20 • last modified 2010-11-18 10:43:29
Privacy PolicyDisclaimer
• wx.awcolley.com is powered by PmWiki v.2002016 •
• all content (unless otherwise noted) © 2018 A W Colley